Terminal Aerodrome Forecast
Issued by NWS

Home | Current Version | Previous Version | Text Only | Print | Product List | Glossary On
Versions: 1 2 3 4 5 6 7 8 9 10 11 12 13 14 15 16 17 18 19 20 21 22 23 24 25 26 27 28 29 30 31 32 33 34 35 36 37 38
000
FTUS45 KBOU 151139
TAFBJC
TAF
KBJC 151139Z 1512/1612 15004KT 5SM BR BKN005 OVC090
     FM151300 VRB05KT P6SM SCT060 BKN090 OVC120
     FM151800 33010KT P6SM FEW080 BKN140
     FM152300 07006KT P6SM FEW140 SCT200
     FM160300 VRB06KT P6SM SCT200=

USA.gov is the U.S. government's official web portal to all federal, state and local government web resources and services.